マラボ の空港の天気 - METARとTAF

マラボ国際空港 ( FGSL / SSG ) - 赤道ギニア マラボ
飛行場実況気象(Metar)
観測時間05/26 02:00 WAT (05/26 01:00 UTC)
風向・風速静穏 0m/s
視程10km以上
天気現象
少しの雲 雲底高度 300m
少しの雲 雲底高度 610m
気温25℃
湿度89%
気圧1015hPa
METARFGSL 260100Z 00000KT 9999 TS FEW010 FEW020CB 25/23 Q1015 NOSIG
過去の天気等 Google飛行場航空写真 Wunderground天気予報

過去48時間のMETAR

飛行場予報(TAF)
発表時間: 5/26 00:00 WAT (5/25 23:00 UTC)
予報対象時間: 26日1時 WAT ~ 27日7時 WAT
風向・風速西南西 3m/s
視程10km以上
全天の4割程度の雲 雲底高度 300m
26日3時 WAT ~ 26日9時 WAT に 確率 40% で一時的に
視程3000m
天気現象雷雨
全天の8割程度の雲 雲底高度 240m
全天の4割程度の積乱雲 雲底高度 490m
26日13時 WAT ~ 26日18時 WAT に一時的に
視程4000m
天気現象雷しゅう雨
全天の8割程度の雲 雲底高度 300m
少しの積乱雲 雲底高度 550m
TAF FGSL 252300Z 2600/2706 24006KT 9999 SCT010
PROB40 TEMPO 2602/2608 3000 TSRA BKN008 SCT016CB
TEMPO 2612/2617 4000 TSSHRA BKN010 FEW018CB